sensor_id;sensor_type;location;lat;lon;timestamp;temperature;humidity
33927;DHT22;20485;50.992;5.550;2024-01-25T02:47:41;5.10;99.90
33927;DHT22;20485;50.992;5.550;2024-01-25T02:50:07;5.00;99.90
33927;DHT22;20485;50.992;5.550;2024-01-25T02:52:33;5.10;99.90
33927;DHT22;20485;50.992;5.550;2024-01-25T02:54:59;5.00;99.90
33927;DHT22;20485;50.992;5.550;2024-01-25T02:57:26;4.90;99.90
33927;DHT22;20485;50.992;5.550;2024-01-25T02:59:51;4.90;99.90
33927;DHT22;20485;50.992;5.550;2024-01-25T03:02:17;4.90;99.90
33927;DHT22;20485;50.992;5.550;2024-01-25T03:04:45;4.80;99.90
33927;DHT22;20485;50.992;5.550;2024-01-25T03:07:11;5.70;99.90
33927;DHT22;20485;50.992;5.550;2024-01-25T03:09:36;4.70;99.90
33927;DHT22;20485;50.992;5.550;2024-01-25T03:12:02;4.60;99.90
33927;DHT22;20485;50.992;5.550;2024-01-25T03:14:28;4.60;99.90
33927;DHT22;20485;50.992;5.550;2024-01-25T03:16:54;4.60;99.90
33927;DHT22;20485;50.992;5.550;2024-01-25T03:19:19;5.90;99.90
33927;DHT22;20485;50.992;5.550;2024-01-25T03:21:45;4.40;99.90
33927;DHT22;20485;50.992;5.550;2024-01-25T03:24:10;4.40;99.90
33927;DHT22;20485;50.992;5.550;2024-01-25T03:26:36;4.40;99.90
33927;DHT22;20485;50.992;5.550;2024-01-25T03:29:02;4.30;99.90
33927;DHT22;20485;50.992;5.550;2024-01-25T03:31:28;4.80;99.90
33927;DHT22;20485;50.992;5.550;2024-01-25T03:33:53;5.10;99.90
33927;DHT22;20485;50.992;5.550;2024-01-25T03:36:19;4.40;99.90
33927;DHT22;20485;50.992;5.550;2024-01-25T03:38:45;4.30;99.90
33927;DHT22;20485;50.992;5.550;2024-01-25T03:41:10;4.30;99.90
33927;DHT22;20485;50.992;5.550;2024-01-25T03:43:36;4.30;99.90
33927;DHT22;20485;50.992;5.550;2024-01-25T03:46:02;4.30;99.90
33927;DHT22;20485;50.992;5.550;2024-01-25T04:07:06;4.00;99.90
33927;DHT22;20485;50.992;5.550;2024-01-25T04:09:32;4.00;99.90
33927;DHT22;20485;50.992;5.550;2024-01-25T04:11:58;3.90;99.90
33927;DHT22;20485;50.992;5.550;2024-01-25T04:14:24;3.80;99.90
33927;DHT22;20485;50.992;5.550;2024-01-25T04:16:49;3.70;99.90
33927;DHT22;20485;50.992;5.550;2024-01-25T04:19:15;3.70;99.90
33927;DHT22;20485;50.992;5.550;2024-01-25T04:21:40;4.70;99.90
33927;DHT22;20485;50.992;5.550;2024-01-25T04:24:06;3.80;99.90
33927;DHT22;20485;50.992;5.550;2024-01-25T04:26:32;3.70;99.90
33927;DHT22;20485;50.992;5.550;2024-01-25T04:28:57;3.60;99.90
33927;DHT22;20485;50.992;5.550;2024-01-25T04:31:23;3.60;99.90
33927;DHT22;20485;50.992;5.550;2024-01-25T04:33:49;3.50;99.90
33927;DHT22;20485;50.992;5.550;2024-01-25T04:36:14;3.50;99.90
33927;DHT22;20485;50.992;5.550;2024-01-25T04:38:40;3.50;99.90
33927;DHT22;20485;50.992;5.550;2024-01-25T04:41:06;3.50;99.90
33927;DHT22;20485;50.992;5.550;2024-01-25T04:43:35;3.40;99.90
33927;DHT22;20485;50.992;5.550;2024-01-25T04:46:02;3.40;99.90
33927;DHT22;20485;50.992;5.550;2024-01-25T04:48:28;3.40;99.90
33927;DHT22;20485;50.992;5.550;2024-01-25T04:50:55;3.30;99.90
33927;DHT22;20485;50.992;5.550;2024-01-25T04:53:21;3.30;99.90
33927;DHT22;20485;50.992;5.550;2024-01-25T04:55:47;3.40;99.90
33927;DHT22;20485;50.992;5.550;2024-01-25T04:58:12;3.40;99.90
33927;DHT22;20485;50.992;5.550;2024-01-25T05:00:38;3.40;99.90
33927;DHT22;20485;50.992;5.550;2024-01-25T05:03:05;3.40;99.90
33927;DHT22;20485;50.992;5.550;2024-01-25T05:24:06;3.20;99.90
33927;DHT22;20485;50.992;5.550;2024-01-25T05:26:35;3.20;99.90
33927;DHT22;20485;50.992;5.550;2024-01-25T05:29:00;3.10;99.90
33927;DHT22;20485;50.992;5.550;2024-01-25T05:31:26;3.00;99.90
33927;DHT22;20485;50.992;5.550;2024-01-25T05:33:52;3.00;99.90
33927;DHT22;20485;50.992;5.550;2024-01-25T05:36:17;3.00;99.90
33927;DHT22;20485;50.992;5.550;2024-01-25T05:38:43;3.00;99.90
33927;DHT22;20485;50.992;5.550;2024-01-25T05:41:09;2.90;99.90
33927;DHT22;20485;50.992;5.550;2024-01-25T05:43:34;3.00;99.90
33927;DHT22;20485;50.992;5.550;2024-01-25T05:46:00;2.90;99.90
33927;DHT22;20485;50.992;5.550;2024-01-25T05:48:26;3.50;99.90
33927;DHT22;20485;50.992;5.550;2024-01-25T05:50:51;2.90;99.90
33927;DHT22;20485;50.992;5.550;2024-01-25T05:53:17;2.90;99.90
33927;DHT22;20485;50.992;5.550;2024-01-25T05:55:45;5.00;99.90
33927;DHT22;20485;50.992;5.550;2024-01-25T05:58:11;3.00;99.90
33927;DHT22;20485;50.992;5.550;2024-01-25T06:00:36;3.00;99.90
33927;DHT22;20485;50.992;5.550;2024-01-25T06:03:02;3.00;99.90
33927;DHT22;20485;50.992;5.550;2024-01-25T06:05:28;3.00;99.90
33927;DHT22;20485;50.992;5.550;2024-01-25T06:07:54;2.90;99.90
33927;DHT22;20485;50.992;5.550;2024-01-25T06:10:19;2.90;99.90
33927;DHT22;20485;50.992;5.550;2024-01-25T06:12:45;2.90;99.90
33927;DHT22;20485;50.992;5.550;2024-01-25T06:15:10;4.30;99.90
33927;DHT22;20485;50.992;5.550;2024-01-25T06:17:36;2.90;99.90
33927;DHT22;20485;50.992;5.550;2024-01-25T06:20:02;2.80;99.90
33927;DHT22;20485;50.992;5.550;2024-01-25T06:22:28;2.80;99.90
33927;DHT22;20485;50.992;5.550;2024-01-25T06:24:53;2.80;99.90
33927;DHT22;20485;50.992;5.550;2024-01-25T06:27:19;2.90;99.90
33927;DHT22;20485;50.992;5.550;2024-01-25T06:29:44;2.90;99.90
33927;DHT22;20485;50.992;5.550;2024-01-25T06:32:10;2.90;99.90
33927;DHT22;20485;50.992;5.550;2024-01-25T06:34:36;2.90;99.90
33927;DHT22;20485;50.992;5.550;2024-01-25T06:37:02;2.90;99.90
33927;DHT22;20485;50.992;5.550;2024-01-25T06:39:27;2.90;99.90
33927;DHT22;20485;50.992;5.550;2024-01-25T06:41:54;2.80;99.90
33927;DHT22;20485;50.992;5.550;2024-01-25T06:44:19;2.80;99.90
33927;DHT22;20485;50.992;5.550;2024-01-25T06:46:45;2.80;99.90
33927;DHT22;20485;50.992;5.550;2024-01-25T06:49:11;2.80;99.90
33927;DHT22;20485;50.992;5.550;2024-01-25T06:51:37;2.80;99.90
33927;DHT22;20485;50.992;5.550;2024-01-25T06:54:02;2.70;99.90
33927;DHT22;20485;50.992;5.550;2024-01-25T06:56:28;2.70;99.90
33927;DHT22;20485;50.992;5.550;2024-01-25T06:58:54;2.60;99.90
33927;DHT22;20485;50.992;5.550;2024-01-25T07:01:21;2.60;99.90
33927;DHT22;20485;50.992;5.550;2024-01-25T07:03:47;2.60;99.90
33927;DHT22;20485;50.992;5.550;2024-01-25T07:06:13;2.50;99.90
33927;DHT22;20485;50.992;5.550;2024-01-25T07:08:38;2.50;99.90
33927;DHT22;20485;50.992;5.550;2024-01-25T07:11:04;2.50;99.90
33927;DHT22;20485;50.992;5.550;2024-01-25T07:13:30;2.50;99.90
33927;DHT22;20485;50.992;5.550;2024-01-25T07:15:55;2.60;99.90
33927;DHT22;20485;50.992;5.550;2024-01-25T07:18:21;2.50;99.90
33927;DHT22;20485;50.992;5.550;2024-01-25T07:20:48;2.50;99.90
33927;DHT22;20485;50.992;5.550;2024-01-25T07:23:13;2.50;99.90
33927;DHT22;20485;50.992;5.550;2024-01-25T07:25:39;2.50;99.90
33927;DHT22;20485;50.992;5.550;2024-01-25T07:28:05;2.90;99.90
33927;DHT22;20485;50.992;5.550;2024-01-25T07:30:30;2.70;99.90
33927;DHT22;20485;50.992;5.550;2024-01-25T07:32:56;2.60;99.90
33927;DHT22;20485;50.992;5.550;2024-01-25T07:35:22;2.70;99.90
33927;DHT22;20485;50.992;5.550;2024-01-25T07:37:48;2.80;99.90
33927;DHT22;20485;50.992;5.550;2024-01-25T07:40:14;2.90;99.90
33927;DHT22;20485;50.992;5.550;2024-01-25T07:42:40;2.90;99.90
33927;DHT22;20485;50.992;5.550;2024-01-25T07:45:06;3.00;99.90
33927;DHT22;20485;50.992;5.550;2024-01-25T07:47:32;3.10;99.90
33927;DHT22;20485;50.992;5.550;2024-01-25T07:49:59;3.20;99.90
33927;DHT22;20485;50.992;5.550;2024-01-25T07:52:24;3.20;99.90
33927;DHT22;20485;50.992;5.550;2024-01-25T07:54:50;3.20;99.90
33927;DHT22;20485;50.992;5.550;2024-01-25T07:57:18;3.10;99.90
33927;DHT22;20485;50.992;5.550;2024-01-25T07:59:44;3.10;99.90
33927;DHT22;20485;50.992;5.550;2024-01-25T08:02:10;3.20;99.90
33927;DHT22;20485;50.992;5.550;2024-01-25T08:04:36;3.20;99.90
33927;DHT22;20485;50.992;5.550;2024-01-25T08:07:02;3.20;99.90
33927;DHT22;20485;50.992;5.550;2024-01-25T08:09:27;3.20;99.90
33927;DHT22;20485;50.992;5.550;2024-01-25T08:11:53;3.30;99.90
33927;DHT22;20485;50.992;5.550;2024-01-25T08:14:19;3.30;99.90
33927;DHT22;20485;50.992;5.550;2024-01-25T08:16:44;3.40;99.90
33927;DHT22;20485;50.992;5.550;2024-01-25T08:19:10;3.40;99.90
33927;DHT22;20485;50.992;5.550;2024-01-25T08:21:36;3.40;99.90
33927;DHT22;20485;50.992;5.550;2024-01-25T08:24:02;3.50;99.90
33927;DHT22;20485;50.992;5.550;2024-01-25T08:26:28;3.50;99.90
33927;DHT22;20485;50.992;5.550;2024-01-25T08:28:54;3.60;99.90
33927;DHT22;20485;50.992;5.550;2024-01-25T08:31:19;3.60;99.90
33927;DHT22;20485;50.992;5.550;2024-01-25T08:33:45;3.70;99.90
33927;DHT22;20485;50.992;5.550;2024-01-25T08:36:16;3.80;99.90
33927;DHT22;20485;50.992;5.550;2024-01-25T08:38:42;4.80;99.90
33927;DHT22;20485;50.992;5.550;2024-01-25T08:41:07;4.00;99.90
33927;DHT22;20485;50.992;5.550;2024-01-25T08:43:33;4.10;99.90
33927;DHT22;20485;50.992;5.550;2024-01-25T08:46:00;4.20;99.90
33927;DHT22;20485;50.992;5.550;2024-01-25T08:48:27;5.80;99.90
33927;DHT22;20485;50.992;5.550;2024-01-25T08:50:53;4.40;99.90
33927;DHT22;20485;50.992;5.550;2024-01-25T08:53:20;4.40;99.90
33927;DHT22;20485;50.992;5.550;2024-01-25T08:55:48;4.50;99.90
33927;DHT22;20485;50.992;5.550;2024-01-25T08:58:14;4.60;99.90
33927;DHT22;20485;50.992;5.550;2024-01-25T09:00:39;4.70;99.90
33927;DHT22;20485;50.992;5.550;2024-01-25T09:03:05;4.80;99.90
33927;DHT22;20485;50.992;5.550;2024-01-25T09:05:31;4.90;99.90
33927;DHT22;20485;50.992;5.550;2024-01-25T09:07:59;5.00;99.90
33927;DHT22;20485;50.992;5.550;2024-01-25T09:10:25;5.10;99.90
33927;DHT22;20485;50.992;5.550;2024-01-25T09:12:51;5.10;99.90
33927;DHT22;20485;50.992;5.550;2024-01-25T09:15:17;5.30;99.90
33927;DHT22;20485;50.992;5.550;2024-01-25T09:17:42;5.30;99.90
33927;DHT22;20485;50.992;5.550;2024-01-25T09:20:10;5.40;99.90
33927;DHT22;20485;50.992;5.550;2024-01-25T09:22:36;5.40;99.90
33927;DHT22;20485;50.992;5.550;2024-01-25T09:25:03;5.80;99.90
33927;DHT22;20485;50.992;5.550;2024-01-25T09:27:28;5.40;99.90
33927;DHT22;20485;50.992;5.550;2024-01-25T09:29:54;5.50;99.90
33927;DHT22;20485;50.992;5.550;2024-01-25T09:32:20;5.50;99.90
33927;DHT22;20485;50.992;5.550;2024-01-25T09:34:46;5.50;99.90
33927;DHT22;20485;50.992;5.550;2024-01-25T09:37:11;5.50;99.90
33927;DHT22;20485;50.992;5.550;2024-01-25T09:39:37;5.50;99.90
33927;DHT22;20485;50.992;5.550;2024-01-25T09:42:04;5.50;99.90
33927;DHT22;20485;50.992;5.550;2024-01-25T09:44:30;5.50;99.90
33927;DHT22;20485;50.992;5.550;2024-01-25T09:46:56;5.50;99.90
33927;DHT22;20485;50.992;5.550;2024-01-25T09:49:22;5.60;99.90
33927;DHT22;20485;50.992;5.550;2024-01-25T09:51:50;5.60;99.90
33927;DHT22;20485;50.992;5.550;2024-01-25T09:54:16;5.60;99.90
33927;DHT22;20485;50.992;5.550;2024-01-25T09:56:42;5.70;99.90
33927;DHT22;20485;50.992;5.550;2024-01-25T09:59:08;5.80;99.90
33927;DHT22;20485;50.992;5.550;2024-01-25T10:01:34;6.10;99.90
33927;DHT22;20485;50.992;5.550;2024-01-25T10:04:00;5.90;99.90
33927;DHT22;20485;50.992;5.550;2024-01-25T10:06:26;5.90;99.90
33927;DHT22;20485;50.992;5.550;2024-01-25T10:08:52;6.00;99.90
33927;DHT22;20485;50.992;5.550;2024-01-25T10:11:18;5.90;99.90
33927;DHT22;20485;50.992;5.550;2024-01-25T10:13:45;5.90;99.90
33927;DHT22;20485;50.992;5.550;2024-01-25T10:16:16;6.00;99.90
33927;DHT22;20485;50.992;5.550;2024-01-25T10:18:43;6.10;99.90
33927;DHT22;20485;50.992;5.550;2024-01-25T10:21:13;6.10;99.90
33927;DHT22;20485;50.992;5.550;2024-01-25T10:23:39;6.20;99.90
33927;DHT22;20485;50.992;5.550;2024-01-25T10:26:07;6.20;99.90
33927;DHT22;20485;50.992;5.550;2024-01-25T10:28:33;6.30;99.90
33927;DHT22;20485;50.992;5.550;2024-01-25T10:31:00;6.30;99.90
33927;DHT22;20485;50.992;5.550;2024-01-25T10:33:27;6.40;99.90
33927;DHT22;20485;50.992;5.550;2024-01-25T10:35:54;6.50;99.90
33927;DHT22;20485;50.992;5.550;2024-01-25T10:38:21;6.50;99.90
33927;DHT22;20485;50.992;5.550;2024-01-25T10:40:47;6.50;99.90
33927;DHT22;20485;50.992;5.550;2024-01-25T10:43:13;6.50;99.90
33927;DHT22;20485;50.992;5.550;2024-01-25T10:45:39;6.60;99.90
33927;DHT22;20485;50.992;5.550;2024-01-25T10:48:06;6.50;99.90
33927;DHT22;20485;50.992;5.550;2024-01-25T10:50:32;6.60;99.90
33927;DHT22;20485;50.992;5.550;2024-01-25T10:52:58;6.90;99.90
33927;DHT22;20485;50.992;5.550;2024-01-25T10:55:25;6.60;99.90
33927;DHT22;20485;50.992;5.550;2024-01-25T10:57:52;6.60;99.90
33927;DHT22;20485;50.992;5.550;2024-01-25T11:00:18;6.70;99.90
33927;DHT22;20485;50.992;5.550;2024-01-25T11:02:44;6.70;99.90
33927;DHT22;20485;50.992;5.550;2024-01-25T11:05:15;6.70;99.90
33927;DHT22;20485;50.992;5.550;2024-01-25T11:07:45;6.80;99.90
33927;DHT22;20485;50.992;5.550;2024-01-25T11:12:49;6.90;99.90
33927;DHT22;20485;50.992;5.550;2024-01-25T11:15:21;7.00;99.90
33927;DHT22;20485;50.992;5.550;2024-01-25T11:17:54;7.10;99.90
33927;DHT22;20485;50.992;5.550;2024-01-25T11:20:24;7.20;99.90
33927;DHT22;20485;50.992;5.550;2024-01-25T11:23:04;7.20;99.90
33927;DHT22;20485;50.992;5.550;2024-01-25T11:25:34;7.20;99.90
33927;DHT22;20485;50.992;5.550;2024-01-25T11:28:02;7.30;99.90
33927;DHT22;20485;50.992;5.550;2024-01-25T11:30:29;7.30;99.90
33927;DHT22;20485;50.992;5.550;2024-01-25T11:32:56;7.40;99.90
33927;DHT22;20485;50.992;5.550;2024-01-25T11:35:22;7.40;99.90
33927;DHT22;20485;50.992;5.550;2024-01-25T11:37:49;7.40;99.90
33927;DHT22;20485;50.992;5.550;2024-01-25T11:40:15;7.60;99.90
33927;DHT22;20485;50.992;5.550;2024-01-25T11:42:43;7.70;99.90
33927;DHT22;20485;50.992;5.550;2024-01-25T11:45:12;7.70;99.90
33927;DHT22;20485;50.992;5.550;2024-01-25T11:47:40;7.80;99.90
33927;DHT22;20485;50.992;5.550;2024-01-25T11:50:08;7.80;99.90
33927;DHT22;20485;50.992;5.550;2024-01-25T11:52:34;7.80;99.90
33927;DHT22;20485;50.992;5.550;2024-01-25T11:55:07;7.90;99.90
33927;DHT22;20485;50.992;5.550;2024-01-25T11:57:40;7.90;99.90
33927;DHT22;20485;50.992;5.550;2024-01-25T12:00:08;8.00;99.90
33927;DHT22;20485;50.992;5.550;2024-01-25T12:02:36;8.00;99.90
33927;DHT22;20485;50.992;5.550;2024-01-25T12:05:02;8.10;99.90
33927;DHT22;20485;50.992;5.550;2024-01-25T12:07:30;8.10;99.90
33927;DHT22;20485;50.992;5.550;2024-01-25T12:10:03;8.10;99.90
33927;DHT22;20485;50.992;5.550;2024-01-25T12:12:29;8.10;99.90
33927;DHT22;20485;50.992;5.550;2024-01-25T12:14:59;8.20;99.90
33927;DHT22;20485;50.992;5.550;2024-01-25T12:17:29;8.30;99.90
33927;DHT22;20485;50.992;5.550;2024-01-25T12:19:58;8.40;99.90
33927;DHT22;20485;50.992;5.550;2024-01-25T12:22:28;8.40;99.90
33927;DHT22;20485;50.992;5.550;2024-01-25T12:24:55;8.50;99.90
33927;DHT22;20485;50.992;5.550;2024-01-25T12:27:26;8.50;99.90
33927;DHT22;20485;50.992;5.550;2024-01-25T12:29:52;8.50;99.90
33927;DHT22;20485;50.992;5.550;2024-01-25T12:32:22;8.50;99.90
33927;DHT22;20485;50.992;5.550;2024-01-25T12:34:54;8.40;99.90
33927;DHT22;20485;50.992;5.550;2024-01-25T12:37:20;8.40;99.90
33927;DHT22;20485;50.992;5.550;2024-01-25T12:39:46;8.40;99.90
33927;DHT22;20485;50.992;5.550;2024-01-25T12:42:12;8.40;99.90
33927;DHT22;20485;50.992;5.550;2024-01-25T12:44:38;8.50;99.90
33927;DHT22;20485;50.992;5.550;2024-01-25T12:47:04;8.40;99.90
33927;DHT22;20485;50.992;5.550;2024-01-25T12:49:32;8.50;99.90
33927;DHT22;20485;50.992;5.550;2024-01-25T12:51:57;8.50;99.90
33927;DHT22;20485;50.992;5.550;2024-01-25T12:54:23;8.50;99.90
33927;DHT22;20485;50.992;5.550;2024-01-25T12:56:49;8.50;99.90
33927;DHT22;20485;50.992;5.550;2024-01-25T12:59:15;8.60;99.90
33927;DHT22;20485;50.992;5.550;2024-01-25T13:01:41;8.60;99.90
33927;DHT22;20485;50.992;5.550;2024-01-25T13:04:06;8.60;99.90
33927;DHT22;20485;50.992;5.550;2024-01-25T13:06:32;8.70;99.90
33927;DHT22;20485;50.992;5.550;2024-01-25T13:08:57;8.70;99.90
33927;DHT22;20485;50.992;5.550;2024-01-25T13:11:23;8.70;99.90
33927;DHT22;20485;50.992;5.550;2024-01-25T13:13:49;8.70;99.90
33927;DHT22;20485;50.992;5.550;2024-01-25T13:16:16;8.70;99.90
33927;DHT22;20485;50.992;5.550;2024-01-25T13:18:42;8.80;99.90
33927;DHT22;20485;50.992;5.550;2024-01-25T13:21:08;8.80;99.90
33927;DHT22;20485;50.992;5.550;2024-01-25T13:23:33;8.80;99.90
33927;DHT22;20485;50.992;5.550;2024-01-25T13:25:59;8.80;99.90
33927;DHT22;20485;50.992;5.550;2024-01-25T13:28:25;8.80;99.90
33927;DHT22;20485;50.992;5.550;2024-01-25T13:30:50;8.80;99.90
33927;DHT22;20485;50.992;5.550;2024-01-25T13:33:19;8.70;99.90
33927;DHT22;20485;50.992;5.550;2024-01-25T13:35:44;8.70;99.90
33927;DHT22;20485;50.992;5.550;2024-01-25T13:38:10;8.70;99.90
33927;DHT22;20485;50.992;5.550;2024-01-25T13:40:40;8.60;99.90
33927;DHT22;20485;50.992;5.550;2024-01-25T13:43:06;8.60;99.90
33927;DHT22;20485;50.992;5.550;2024-01-25T13:45:31;8.50;99.90
33927;DHT22;20485;50.992;5.550;2024-01-25T13:47:57;8.50;99.90
33927;DHT22;20485;50.992;5.550;2024-01-25T13:50:22;8.40;99.90
33927;DHT22;20485;50.992;5.550;2024-01-25T13:52:48;8.40;99.90
33927;DHT22;20485;50.992;5.550;2024-01-25T13:55:14;8.40;99.90
33927;DHT22;20485;50.992;5.550;2024-01-25T13:57:39;8.40;99.90
33927;DHT22;20485;50.992;5.550;2024-01-25T14:00:05;8.40;99.90
33927;DHT22;20485;50.992;5.550;2024-01-25T14:02:32;8.40;99.90
33927;DHT22;20485;50.992;5.550;2024-01-25T14:04:58;8.50;99.90
33927;DHT22;20485;50.992;5.550;2024-01-25T14:07:23;8.40;99.90
33927;DHT22;20485;50.992;5.550;2024-01-25T14:09:49;8.40;99.90
33927;DHT22;20485;50.992;5.550;2024-01-25T14:12:15;8.40;99.90
33927;DHT22;20485;50.992;5.550;2024-01-25T14:14:41;8.40;99.90
33927;DHT22;20485;50.992;5.550;2024-01-25T14:17:07;8.40;99.90
33927;DHT22;20485;50.992;5.550;2024-01-25T14:19:33;8.40;99.90
33927;DHT22;20485;50.992;5.550;2024-01-25T14:21:58;8.40;99.90
33927;DHT22;20485;50.992;5.550;2024-01-25T14:24:24;8.40;99.90
33927;DHT22;20485;50.992;5.550;2024-01-25T14:26:49;8.30;99.90
33927;DHT22;20485;50.992;5.550;2024-01-25T14:29:15;8.30;99.90
33927;DHT22;20485;50.992;5.550;2024-01-25T14:31:41;8.30;99.90
33927;DHT22;20485;50.992;5.550;2024-01-25T14:34:07;8.30;99.90
33927;DHT22;20485;50.992;5.550;2024-01-25T14:36:36;8.30;99.90
33927;DHT22;20485;50.992;5.550;2024-01-25T14:39:02;8.30;99.90
33927;DHT22;20485;50.992;5.550;2024-01-25T14:41:29;8.30;99.90
33927;DHT22;20485;50.992;5.550;2024-01-25T14:43:55;8.30;99.90
33927;DHT22;20485;50.992;5.550;2024-01-25T14:46:21;8.30;99.90
33927;DHT22;20485;50.992;5.550;2024-01-25T14:48:46;8.30;99.90
33927;DHT22;20485;50.992;5.550;2024-01-25T14:51:12;8.30;99.90
33927;DHT22;20485;50.992;5.550;2024-01-25T14:53:37;8.30;99.90
33927;DHT22;20485;50.992;5.550;2024-01-25T14:56:03;8.30;99.90
33927;DHT22;20485;50.992;5.550;2024-01-25T14:58:29;8.30;99.90
33927;DHT22;20485;50.992;5.550;2024-01-25T15:00:55;8.20;99.90
33927;DHT22;20485;50.992;5.550;2024-01-25T15:03:20;8.30;99.90
33927;DHT22;20485;50.992;5.550;2024-01-25T15:05:46;8.20;99.90
33927;DHT22;20485;50.992;5.550;2024-01-25T15:08:12;8.30;99.90
33927;DHT22;20485;50.992;5.550;2024-01-25T15:10:38;8.20;99.90
33927;DHT22;20485;50.992;5.550;2024-01-25T15:13:03;8.20;99.90
33927;DHT22;20485;50.992;5.550;2024-01-25T15:15:29;8.20;99.90
33927;DHT22;20485;50.992;5.550;2024-01-25T15:17:56;8.20;99.90
33927;DHT22;20485;50.992;5.550;2024-01-25T15:20:22;8.20;99.90
33927;DHT22;20485;50.992;5.550;2024-01-25T15:22:49;8.20;99.90
33927;DHT22;20485;50.992;5.550;2024-01-25T15:25:15;8.20;99.90
33927;DHT22;20485;50.992;5.550;2024-01-25T15:27:41;8.20;99.90
33927;DHT22;20485;50.992;5.550;2024-01-25T15:30:07;8.20;99.90
33927;DHT22;20485;50.992;5.550;2024-01-25T15:32:34;8.20;99.90
33927;DHT22;20485;50.992;5.550;2024-01-25T15:35:00;8.20;99.90
33927;DHT22;20485;50.992;5.550;2024-01-25T15:37:26;8.20;99.90
33927;DHT22;20485;50.992;5.550;2024-01-25T15:39:51;8.10;99.90
33927;DHT22;20485;50.992;5.550;2024-01-25T15:42:17;8.10;99.90
33927;DHT22;20485;50.992;5.550;2024-01-25T15:44:43;8.10;99.90
33927;DHT22;20485;50.992;5.550;2024-01-25T15:47:08;8.10;99.90
33927;DHT22;20485;50.992;5.550;2024-01-25T15:49:34;8.10;99.90
33927;DHT22;20485;50.992;5.550;2024-01-25T15:51:59;8.10;99.90
33927;DHT22;20485;50.992;5.550;2024-01-25T15:54:26;8.10;99.90
33927;DHT22;20485;50.992;5.550;2024-01-25T15:56:51;8.10;99.90
33927;DHT22;20485;50.992;5.550;2024-01-25T15:59:17;8.10;99.90
33927;DHT22;20485;50.992;5.550;2024-01-25T16:01:43;8.10;99.90
33927;DHT22;20485;50.992;5.550;2024-01-25T16:04:09;8.10;99.90
33927;DHT22;20485;50.992;5.550;2024-01-25T16:06:35;8.20;99.90
33927;DHT22;20485;50.992;5.550;2024-01-25T16:09:01;8.20;99.90
33927;DHT22;20485;50.992;5.550;2024-01-25T16:39:09;8.20;99.90
33927;DHT22;20485;50.992;5.550;2024-01-25T16:41:35;8.20;99.90
33927;DHT22;20485;50.992;5.550;2024-01-25T16:44:01;8.20;99.90
33927;DHT22;20485;50.992;5.550;2024-01-25T16:46:28;8.20;99.90
33927;DHT22;20485;50.992;5.550;2024-01-25T16:49:02;8.20;99.90
33927;DHT22;20485;50.992;5.550;2024-01-25T16:51:31;8.20;99.90
33927;DHT22;20485;50.992;5.550;2024-01-25T16:54:03;8.20;99.90
33927;DHT22;20485;50.992;5.550;2024-01-25T16:56:43;8.30;99.90
33927;DHT22;20485;50.992;5.550;2024-01-25T16:59:28;8.30;99.90
33927;DHT22;20485;50.992;5.550;2024-01-25T17:01:58;8.30;99.90
33927;DHT22;20485;50.992;5.550;2024-01-25T17:04:30;8.20;99.90
33927;DHT22;20485;50.992;5.550;2024-01-25T17:06:57;8.30;99.90
33927;DHT22;20485;50.992;5.550;2024-01-25T17:09:42;8.20;99.90
33927;DHT22;20485;50.992;5.550;2024-01-25T17:12:16;8.30;99.90
33927;DHT22;20485;50.992;5.550;2024-01-25T17:14:43;8.30;99.90
33927;DHT22;20485;50.992;5.550;2024-01-25T17:45:34;8.40;99.90
33927;DHT22;20485;50.992;5.550;2024-01-25T17:48:02;8.40;99.90
33927;DHT22;20485;50.992;5.550;2024-01-25T17:50:27;8.40;99.90
33927;DHT22;20485;50.992;5.550;2024-01-25T17:52:54;8.40;99.90
33927;DHT22;20485;50.992;5.550;2024-01-25T17:55:19;8.40;99.90
33927;DHT22;20485;50.992;5.550;2024-01-25T17:57:45;8.30;99.90
33927;DHT22;20485;50.992;5.550;2024-01-25T18:00:11;8.30;99.90
33927;DHT22;20485;50.992;5.550;2024-01-25T18:02:37;8.30;99.90
33927;DHT22;20485;50.992;5.550;2024-01-25T18:05:03;8.30;99.90
33927;DHT22;20485;50.992;5.550;2024-01-25T18:07:29;8.30;99.90
33927;DHT22;20485;50.992;5.550;2024-01-25T18:09:55;8.30;99.90
33927;DHT22;20485;50.992;5.550;2024-01-25T18:12:21;8.30;99.90
33927;DHT22;20485;50.992;5.550;2024-01-25T18:14:46;8.30;99.90
33927;DHT22;20485;50.992;5.550;2024-01-25T18:17:12;8.30;99.90
33927;DHT22;20485;50.992;5.550;2024-01-25T18:19:42;8.30;99.90
33927;DHT22;20485;50.992;5.550;2024-01-25T18:22:07;8.30;99.90
33927;DHT22;20485;50.992;5.550;2024-01-25T18:24:34;8.30;99.90
33927;DHT22;20485;50.992;5.550;2024-01-25T18:27:00;8.30;99.90
33927;DHT22;20485;50.992;5.550;2024-01-25T18:29:27;8.30;99.90
33927;DHT22;20485;50.992;5.550;2024-01-25T18:31:55;8.30;99.90
33927;DHT22;20485;50.992;5.550;2024-01-25T18:34:21;8.30;99.90
33927;DHT22;20485;50.992;5.550;2024-01-25T18:36:47;8.30;99.90
33927;DHT22;20485;50.992;5.550;2024-01-25T18:39:12;8.30;99.90
33927;DHT22;20485;50.992;5.550;2024-01-25T18:41:40;8.30;99.90
33927;DHT22;20485;50.992;5.550;2024-01-25T22:36:12;8.80;99.90
33927;DHT22;20485;50.992;5.550;2024-01-25T22:38:38;8.80;99.90
33927;DHT22;20485;50.992;5.550;2024-01-25T22:41:05;8.80;99.90
33927;DHT22;20485;50.992;5.550;2024-01-25T22:43:32;8.80;99.90
33927;DHT22;20485;50.992;5.550;2024-01-25T22:45:58;8.90;99.90
33927;DHT22;20485;50.992;5.550;2024-01-25T22:48:26;8.90;99.90
33927;DHT22;20485;50.992;5.550;2024-01-25T22:50:58;8.70;99.90
33927;DHT22;20485;50.992;5.550;2024-01-25T22:53:29;8.90;99.90
33927;DHT22;20485;50.992;5.550;2024-01-25T22:55:56;8.90;99.90
33927;DHT22;20485;50.992;5.550;2024-01-25T22:58:25;8.90;99.90
33927;DHT22;20485;50.992;5.550;2024-01-25T23:00:51;8.90;99.90
33927;DHT22;20485;50.992;5.550;2024-01-25T23:03:17;8.90;99.90
33927;DHT22;20485;50.992;5.550;2024-01-25T23:05:44;8.90;99.90
33927;DHT22;20485;50.992;5.550;2024-01-25T23:08:17;8.90;99.90
33927;DHT22;20485;50.992;5.550;2024-01-25T23:10:45;8.90;99.90
33927;DHT22;20485;50.992;5.550;2024-01-25T23:13:23;9.00;99.90
33927;DHT22;20485;50.992;5.550;2024-01-25T23:15:49;9.00;99.90
33927;DHT22;20485;50.992;5.550;2024-01-25T23:18:22;9.00;99.90
33927;DHT22;20485;50.992;5.550;2024-01-25T23:20:49;9.00;99.90
33927;DHT22;20485;50.992;5.550;2024-01-25T23:23:15;9.00;99.90
33927;DHT22;20485;50.992;5.550;2024-01-25T23:25:42;8.90;99.90
33927;DHT22;20485;50.992;5.550;2024-01-25T23:28:12;9.00;99.90
33927;DHT22;20485;50.992;5.550;2024-01-25T23:30:41;9.00;99.90
33927;DHT22;20485;50.992;5.550;2024-01-25T23:33:07;9.00;99.90
33927;DHT22;20485;50.992;5.550;2024-01-25T23:35:54;9.00;99.90
33927;DHT22;20485;50.992;5.550;2024-01-25T23:57:41;9.00;99.90
